createdAt,value
2022-10-21T00:00:12.253Z,17.33
2022-10-21T00:02:41.831Z,19.25
2022-10-21T00:26:56.230Z,20.90
2022-10-21T00:29:22.916Z,20.67
2022-10-21T00:31:54.287Z,17.67
2022-10-21T00:34:24.820Z,19.85
2022-10-21T00:36:53.692Z,17.23
2022-10-21T00:39:20.311Z,22.45
2022-10-21T00:41:46.920Z,19.55
2022-10-21T00:44:15.678Z,17.40
2022-10-21T00:46:59.454Z,17.73
2022-10-21T00:49:46.494Z,20.30
2022-10-21T00:52:22.335Z,18.20
2022-10-21T00:54:59.179Z,20.80
2022-10-21T01:01:00.010Z,22.33
2022-10-21T01:03:31.887Z,20.60
2022-10-21T01:06:10.544Z,21.08
2022-10-21T01:08:38.975Z,19.95
2022-10-21T01:11:14.627Z,20.48
2022-10-21T01:14:32.855Z,22.42
2022-10-21T01:17:44.891Z,22.40
2022-10-21T01:20:41.387Z,19.13
2022-10-21T01:24:09.850Z,22.85
2022-10-21T01:27:20.296Z,22.88
2022-10-21T01:31:31.815Z,18.20
2022-10-21T01:34:45.571Z,21.30
2022-10-21T01:37:29.281Z,20.38
2022-10-21T01:40:13.866Z,23.20
2022-10-21T01:45:46.669Z,25.77
2022-10-21T01:48:30.794Z,23.20
2022-10-21T01:51:05.482Z,21.60
2022-10-21T01:53:45.738Z,26.23
2022-10-21T01:56:16.615Z,24.10
2022-10-21T01:58:47.671Z,27.88
2022-10-21T02:01:20.051Z,25.80
2022-10-21T02:21:14.456Z,23.65
2022-10-21T02:23:54.320Z,28.30
2022-10-21T02:26:25.757Z,27.30
2022-10-21T02:28:57.296Z,27.48
2022-10-21T02:32:07.997Z,26.38
2022-10-21T02:34:43.308Z,28.50
2022-10-21T02:38:19.841Z,33.83
2022-10-21T02:40:58.211Z,30.05
2022-10-21T02:43:43.265Z,28.40
2022-10-21T02:46:14.598Z,29.23
2022-10-21T02:53:26.965Z,30.20
2022-10-21T02:55:53.579Z,30.70
2022-10-21T02:58:20.223Z,29.58
2022-10-21T03:00:46.950Z,31.80
2022-10-21T03:03:13.676Z,30.45
2022-10-21T03:05:43.167Z,29.73
2022-10-21T03:08:09.818Z,30.05
2022-10-21T03:10:36.632Z,33.95
2022-10-21T03:13:04.200Z,27.38
2022-10-21T03:15:30.893Z,29.95
2022-10-21T03:17:57.870Z,31.95
2022-10-21T03:20:24.700Z,28.55
2022-10-21T04:16:02.038Z,30.23
2022-10-21T04:18:31.443Z,29.85
2022-10-21T04:20:58.364Z,30.13
2022-10-21T04:23:25.127Z,28.77
2022-10-21T04:25:52.154Z,30.00
2022-10-21T04:28:18.816Z,29.98
2022-10-21T04:30:45.917Z,26.88
2022-10-21T04:33:12.599Z,30.40
2022-10-21T04:35:40.434Z,30.92
2022-10-21T04:38:07.582Z,30.20
2022-10-21T04:40:34.558Z,30.42
2022-10-21T04:43:01.311Z,28.70
2022-10-21T04:45:34.150Z,25.00
2022-10-21T04:48:00.756Z,23.95
2022-10-21T04:50:27.466Z,26.75
2022-10-21T04:52:54.128Z,26.08
2022-10-21T04:55:21.096Z,28.63
2022-10-21T04:57:47.959Z,21.52
2022-10-21T05:00:15.238Z,26.20
2022-10-21T05:02:42.052Z,29.05
2022-10-21T05:05:09.430Z,26.17
2022-10-21T05:07:36.128Z,25.88
2022-10-21T05:10:03.169Z,29.40
2022-10-21T05:12:29.817Z,26.70
2022-10-21T05:14:56.501Z,25.80
2022-10-21T05:43:33.565Z,25.75
2022-10-21T05:46:00.263Z,28.15
2022-10-21T05:48:27.092Z,25.70
2022-10-21T05:50:56.597Z,32.63
2022-10-21T05:53:24.931Z,31.13
2022-10-21T05:56:03.720Z,30.27
2022-10-21T05:58:32.802Z,27.25
2022-10-21T06:01:01.031Z,29.65
2022-10-21T06:03:32.997Z,34.28
2022-10-21T06:06:07.742Z,31.00
2022-10-21T06:08:39.111Z,30.55
2022-10-21T06:11:10.524Z,27.90
2022-10-21T06:41:47.264Z,29.67
2022-10-21T06:44:14.137Z,30.80
2022-10-21T06:46:40.828Z,33.15
2022-10-21T06:49:07.511Z,31.95
2022-10-21T06:51:34.308Z,27.48
2022-10-21T06:54:04.041Z,34.58
2022-10-21T06:56:34.048Z,32.65
2022-10-21T06:59:02.235Z,29.33
2022-10-21T07:01:48.173Z,32.67
2022-10-21T07:04:20.865Z,30.17
2022-10-21T07:06:49.778Z,26.70
2022-10-21T07:09:17.890Z,26.98
2022-10-21T07:11:45.781Z,29.02
2022-10-21T07:14:12.728Z,26.67
2022-10-21T07:16:39.529Z,24.70
2022-10-21T07:19:07.309Z,24.90
2022-10-21T07:21:34.531Z,28.67
2022-10-21T07:24:02.062Z,27.05
2022-10-21T07:26:35.561Z,27.85
2022-10-21T07:29:03.920Z,31.15
2022-10-21T07:31:39.856Z,26.80
2022-10-21T07:34:11.077Z,23.63
2022-10-21T07:36:44.209Z,30.10
2022-10-21T07:39:23.116Z,22.63
2022-10-21T07:41:55.724Z,24.08
2022-10-21T07:44:25.837Z,23.75
2022-10-21T07:46:54.296Z,25.20
2022-10-21T07:49:23.024Z,24.90
2022-10-21T07:51:53.816Z,23.25
2022-10-21T07:54:26.419Z,24.83
2022-10-21T07:56:53.667Z,28.70
2022-10-21T07:59:22.980Z,26.85
2022-10-21T08:01:53.351Z,23.17
2022-10-21T08:04:25.059Z,23.08
2022-10-21T08:06:52.071Z,26.15
2022-10-21T08:09:18.781Z,22.00
2022-10-21T08:11:45.759Z,24.58
2022-10-21T08:14:12.798Z,25.45
2022-10-21T08:16:40.412Z,23.55
2022-10-21T08:19:12.031Z,21.85
2022-10-21T08:21:38.770Z,22.33
2022-10-21T08:24:06.190Z,22.92
2022-10-21T08:26:33.250Z,23.88
2022-10-21T08:29:01.777Z,22.92
2022-10-21T08:31:28.564Z,21.38
2022-10-21T08:33:55.802Z,23.10
2022-10-21T08:36:26.173Z,23.20
2022-10-21T08:38:54.701Z,21.52
2022-10-21T08:41:30.464Z,21.77
2022-10-21T08:44:58.557Z,24.85
2022-10-21T08:47:45.836Z,22.75
2022-10-21T08:50:20.467Z,22.40
2022-10-21T08:52:58.440Z,20.85
2022-10-21T08:55:40.827Z,21.88
2022-10-21T08:58:23.305Z,20.77
2022-10-21T09:01:18.285Z,19.63
2022-10-21T09:03:59.244Z,19.08
2022-10-21T09:07:12.150Z,20.92
2022-10-21T09:10:08.817Z,20.75
2022-10-21T09:13:05.899Z,24.90
2022-10-21T09:16:10.624Z,17.80
2022-10-21T09:19:14.093Z,17.55
2022-10-21T09:22:34.271Z,22.48
2022-10-21T09:25:42.060Z,23.73
2022-10-21T09:28:16.325Z,23.98
2022-10-21T09:33:32.341Z,20.13
2022-10-21T09:36:15.891Z,19.98
2022-10-21T09:39:00.785Z,19.17
2022-10-21T09:41:42.839Z,22.95
2022-10-21T09:44:24.104Z,22.25
2022-10-21T09:46:53.877Z,22.48
2022-10-21T09:50:02.218Z,21.92
2022-10-21T09:52:32.506Z,19.52
2022-10-21T09:54:59.698Z,24.75
2022-10-21T09:57:51.909Z,21.15
2022-10-21T10:00:18.703Z,24.13
2022-10-21T10:02:48.183Z,20.20
2022-10-21T10:05:48.078Z,21.00
2022-10-21T10:08:45.077Z,18.58
2022-10-21T10:11:21.749Z,23.45
2022-10-21T10:13:54.054Z,18.70
2022-10-21T10:16:32.644Z,17.50
2022-10-21T10:19:11.432Z,18.13
2022-10-21T10:21:38.079Z,16.77
2022-10-21T10:24:08.071Z,22.65
2022-10-21T10:26:38.335Z,18.95
2022-10-21T10:29:28.704Z,19.30
2022-10-21T10:32:02.881Z,18.23
2022-10-21T10:37:27.738Z,15.90
2022-10-21T10:40:00.664Z,19.63
2022-10-21T10:42:41.800Z,14.95
2022-10-21T10:45:35.174Z,14.43
2022-10-21T10:48:07.085Z,16.65
2022-10-21T10:50:49.192Z,15.20
2022-10-21T10:53:54.428Z,15.40
2022-10-21T10:56:33.128Z,17.77
2022-10-21T10:59:08.901Z,13.55
2022-10-21T11:01:51.304Z,18.67
2022-10-21T11:04:32.994Z,17.10
2022-10-21T11:07:49.259Z,14.88
2022-10-21T11:10:53.386Z,17.88
2022-10-21T11:13:25.230Z,15.13
2022-10-21T11:16:50.376Z,14.70
2022-10-21T11:19:56.842Z,15.52
2022-10-21T11:23:01.303Z,14.73
2022-10-21T11:26:05.148Z,16.65
2022-10-21T11:29:25.936Z,13.15
2022-10-21T11:32:55.006Z,12.32
2022-10-21T11:35:40.244Z,12.23
2022-10-21T11:38:29.359Z,12.50
2022-10-21T11:46:36.888Z,12.60
2022-10-21T11:49:24.798Z,14.93
2022-10-21T11:52:28.427Z,14.38
2022-10-21T11:55:47.669Z,13.32
2022-10-21T11:58:49.032Z,14.95
2022-10-21T12:02:44.691Z,17.05
2022-10-21T12:06:03.321Z,16.63
2022-10-21T12:08:51.573Z,14.40
2022-10-21T12:11:41.799Z,16.27
2022-10-21T12:14:46.905Z,15.48
2022-10-21T12:20:02.819Z,15.75
2022-10-21T12:22:33.777Z,16.42
2022-10-21T12:25:34.359Z,19.92
2022-10-21T12:28:43.185Z,17.40
2022-10-21T12:31:40.248Z,13.88
2022-10-21T12:34:12.373Z,16.35
2022-10-21T12:36:46.900Z,15.85
2022-10-21T12:39:36.437Z,14.57
2022-10-21T12:42:27.691Z,14.10
2022-10-21T12:44:54.637Z,13.95
2022-10-21T12:47:38.413Z,16.48
2022-10-21T12:50:30.162Z,15.35
2022-10-21T12:53:41.658Z,13.57
2022-10-21T12:56:11.416Z,13.18
2022-10-21T12:58:47.109Z,14.30
2022-10-21T13:02:06.589Z,13.25
2022-10-21T13:04:33.157Z,14.80
2022-10-21T13:07:29.399Z,14.10
2022-10-21T13:09:55.921Z,14.27
2022-10-21T13:12:25.494Z,12.88
2022-10-21T13:15:21.673Z,13.27
2022-10-21T13:17:52.082Z,14.07
2022-10-21T13:20:21.620Z,13.75
2022-10-21T13:23:14.758Z,13.45
2022-10-21T13:26:02.677Z,17.50
2022-10-21T13:28:31.491Z,14.88
2022-10-21T13:30:59.923Z,13.68
2022-10-21T13:33:39.028Z,13.18
2022-10-21T13:36:14.546Z,14.10
2022-10-21T13:38:55.418Z,13.57
2022-10-21T13:41:29.909Z,14.27
2022-10-21T13:44:02.414Z,13.52
2022-10-21T13:46:40.677Z,12.98
2022-10-21T13:49:35.276Z,13.95
2022-10-21T13:52:03.695Z,14.70
2022-10-21T13:54:35.539Z,15.15
2022-10-21T13:57:11.310Z,12.38
2022-10-21T13:59:40.279Z,12.52
2022-10-21T14:02:27.370Z,13.05
2022-10-21T14:04:54.270Z,13.27
2022-10-21T14:07:24.679Z,16.15
2022-10-21T14:09:58.943Z,13.07
2022-10-21T14:12:46.413Z,14.32
2022-10-21T14:15:28.476Z,14.00
2022-10-21T14:17:59.397Z,15.80
2022-10-21T14:20:37.516Z,17.20
2022-10-21T14:23:20.096Z,16.80
2022-10-21T14:25:55.468Z,14.63
2022-10-21T14:28:23.181Z,17.50
2022-10-21T14:30:50.274Z,15.35
2022-10-21T14:33:28.444Z,17.05
2022-10-21T14:36:19.637Z,16.38
2022-10-21T14:39:06.611Z,14.45
2022-10-21T14:41:45.835Z,16.63
2022-10-21T14:44:21.511Z,17.27
2022-10-21T14:46:54.027Z,16.92
2022-10-21T14:49:32.267Z,16.45
2022-10-21T14:52:08.889Z,15.73
2022-10-21T14:54:54.730Z,14.55
2022-10-21T14:58:01.250Z,14.70
2022-10-21T15:00:41.346Z,14.95
2022-10-21T15:03:12.760Z,18.40
2022-10-21T15:05:49.031Z,16.90
2022-10-21T15:08:22.718Z,15.50
2022-10-21T15:11:00.196Z,16.05
2022-10-21T15:13:27.517Z,17.70
2022-10-21T15:15:59.780Z,17.17
2022-10-21T15:18:43.769Z,18.50
2022-10-21T15:21:36.987Z,18.50
2022-10-21T15:24:43.597Z,16.95
2022-10-21T15:27:37.118Z,15.23
2022-10-21T15:30:19.851Z,18.77
2022-10-21T15:32:49.285Z,17.77
2022-10-21T15:35:21.556Z,16.25
2022-10-21T15:37:53.847Z,19.70
2022-10-21T15:40:25.808Z,17.90
2022-10-21T15:43:04.627Z,19.45
2022-10-21T15:45:33.979Z,23.80
2022-10-21T15:50:42.898Z,23.15
2022-10-21T15:53:10.847Z,24.90
2022-10-21T15:55:38.716Z,21.08
2022-10-21T15:58:06.476Z,21.27
2022-10-21T16:00:39.997Z,19.38
2022-10-21T16:03:09.403Z,20.85
2022-10-21T16:05:38.815Z,19.48
2022-10-21T16:08:05.607Z,30.10
2022-10-21T16:10:36.859Z,29.75
2022-10-21T16:13:04.746Z,22.58
2022-10-21T16:15:34.532Z,21.80
2022-10-21T16:18:01.577Z,22.30
2022-10-21T16:20:33.568Z,19.60
2022-10-21T16:23:02.854Z,33.40
2022-10-21T16:25:34.889Z,22.92
2022-10-21T16:28:02.649Z,19.25
2022-10-21T16:30:39.221Z,27.75
2022-10-21T16:33:06.673Z,39.40
2022-10-21T16:35:33.498Z,46.03
2022-10-21T16:38:02.758Z,33.42
2022-10-21T16:40:35.426Z,27.40
2022-10-21T16:43:05.083Z,31.35
2022-10-21T16:45:33.419Z,45.00
2022-10-21T16:48:04.212Z,28.35
2022-10-21T16:50:46.503Z,29.92
2022-10-21T16:53:19.139Z,34.55
2022-10-21T16:55:48.578Z,39.97
2022-10-21T16:58:17.756Z,36.10
2022-10-21T17:00:48.401Z,36.67
2022-10-21T17:03:15.419Z,44.92
2022-10-21T17:05:42.078Z,44.60
2022-10-21T17:08:08.804Z,42.03
2022-10-21T17:10:35.439Z,42.78
2022-10-21T17:13:05.045Z,42.40
2022-10-21T17:15:39.395Z,44.80
2022-10-21T17:18:06.173Z,42.58
2022-10-21T17:20:33.386Z,43.05
2022-10-21T17:23:00.946Z,43.33
2022-10-21T17:25:30.092Z,47.22
2022-10-21T17:27:57.752Z,46.42
2022-10-21T17:30:25.037Z,42.97
2022-10-21T17:32:51.655Z,45.65
2022-10-21T17:35:21.054Z,45.95
2022-10-21T17:37:49.917Z,38.33
2022-10-21T17:40:27.154Z,44.47
2022-10-21T17:42:54.342Z,39.13
2022-10-21T17:45:22.637Z,38.05
2022-10-21T17:47:52.462Z,40.88
2022-10-21T17:50:23.583Z,39.35
2022-10-21T17:52:55.382Z,41.38
2022-10-21T17:55:22.717Z,36.15
2022-10-21T17:57:51.136Z,38.15
2022-10-21T18:00:20.761Z,34.78
2022-10-21T18:02:47.581Z,39.92
2022-10-21T18:05:16.155Z,34.95
2022-10-21T18:07:42.934Z,34.33
2022-10-21T18:10:10.227Z,36.05
2022-10-21T18:12:37.999Z,34.10
2022-10-21T18:15:05.778Z,34.85
2022-10-21T18:17:37.179Z,32.15
2022-10-21T18:20:04.750Z,35.22
2022-10-21T18:22:33.646Z,35.65
2022-10-21T18:25:00.241Z,37.30
2022-10-21T18:27:26.906Z,40.75
2022-10-21T18:29:55.689Z,36.42
2022-10-21T18:32:22.439Z,36.03
2022-10-21T18:34:49.210Z,35.22
2022-10-21T18:37:22.342Z,34.97
2022-10-21T18:39:49.031Z,38.40
2022-10-21T18:42:15.701Z,37.58
2022-10-21T18:44:42.489Z,36.03
2022-10-21T18:47:09.999Z,37.28
2022-10-21T18:49:36.993Z,36.90
2022-10-21T18:52:04.430Z,36.50
2022-10-21T18:54:33.652Z,49.53
2022-10-21T18:57:00.409Z,37.88
2022-10-21T18:59:27.044Z,38.97
2022-10-21T19:01:56.347Z,42.10
2022-10-21T19:04:23.075Z,43.85
2022-10-21T19:06:49.776Z,39.40
2022-10-21T19:09:25.719Z,49.53
2022-10-21T19:11:53.805Z,44.05
2022-10-21T19:14:21.505Z,46.50
2022-10-21T19:16:49.059Z,41.22
2022-10-21T19:19:18.781Z,42.47
2022-10-21T19:21:50.470Z,52.78
2022-10-21T19:24:17.167Z,45.80
2022-10-21T19:26:46.317Z,49.72
2022-10-21T19:29:19.620Z,42.58
2022-10-21T19:34:26.087Z,47.03
2022-10-21T19:36:53.726Z,52.13
2022-10-21T19:39:20.536Z,55.40
2022-10-21T19:41:47.841Z,73.10
2022-10-21T19:44:14.683Z,60.53
2022-10-21T19:46:42.592Z,55.55
2022-10-21T19:49:12.877Z,87.00
2022-10-21T19:51:42.003Z,71.65
2022-10-21T19:54:12.341Z,52.97
2022-10-21T19:56:39.860Z,46.33
2022-10-21T19:59:08.146Z,68.40
2022-10-21T20:01:35.383Z,47.65
2022-10-21T20:04:04.833Z,57.35
2022-10-21T20:06:36.398Z,74.70
2022-10-21T20:09:09.596Z,51.22
2022-10-21T20:11:39.016Z,54.33
2022-10-21T20:14:06.730Z,58.65
2022-10-21T20:16:41.790Z,62.15
2022-10-21T20:19:12.575Z,62.83
2022-10-21T20:21:39.632Z,59.20
2022-10-21T20:24:06.844Z,74.68
2022-10-21T20:26:34.613Z,57.55
2022-10-21T20:29:02.080Z,89.18
2022-10-21T20:31:29.804Z,61.97
2022-10-21T20:33:57.071Z,74.40
2022-10-21T20:36:29.728Z,109.78
2022-10-21T20:39:02.111Z,56.58
2022-10-21T20:41:37.319Z,97.95
2022-10-21T20:44:10.982Z,62.35
2022-10-21T20:46:37.871Z,68.82
2022-10-21T20:49:06.991Z,60.03
2022-10-21T20:51:36.548Z,86.10
2022-10-21T20:54:11.065Z,98.93
2022-10-21T20:56:40.812Z,64.28
2022-10-21T20:59:15.039Z,82.18
2022-10-21T21:04:20.491Z,66.15
2022-10-21T21:06:49.755Z,87.43
2022-10-21T21:09:50.181Z,61.97
2022-10-21T21:12:06.821Z,65.20
2022-10-21T21:14:33.565Z,58.38
2022-10-21T21:17:00.251Z,64.75
2022-10-21T21:19:26.998Z,66.15
2022-10-21T21:21:53.836Z,54.63
2022-10-21T21:24:20.547Z,68.90
2022-10-21T21:26:47.296Z,64.45
2022-10-21T21:29:16.724Z,50.85
2022-10-21T21:31:44.660Z,55.00
2022-10-21T21:34:11.593Z,58.67
2022-10-21T21:36:38.552Z,57.75
2022-10-21T21:39:07.915Z,62.00
2022-10-21T21:41:35.841Z,65.60
2022-10-21T21:44:04.641Z,49.67
2022-10-21T21:46:31.627Z,49.88
2022-10-21T21:49:05.649Z,60.45
2022-10-21T21:51:36.645Z,51.15
2022-10-21T21:54:07.763Z,47.38
2022-10-21T21:56:35.251Z,61.85
2022-10-21T21:59:02.660Z,43.63
2022-10-21T22:01:30.364Z,46.28
2022-10-21T22:03:59.786Z,46.83
2022-10-21T22:06:33.665Z,51.80
2022-10-21T22:09:02.409Z,50.03
2022-10-21T22:11:33.128Z,50.85
2022-10-21T22:14:00.324Z,42.05
2022-10-21T22:16:30.239Z,44.83
2022-10-21T22:19:01.601Z,48.05
2022-10-21T22:21:30.988Z,45.00
2022-10-21T22:23:58.965Z,43.90
2022-10-21T22:26:26.841Z,47.55
2022-10-21T22:28:54.201Z,38.63
2022-10-21T22:31:27.195Z,42.38
2022-10-21T22:33:56.933Z,43.03
2022-10-21T22:36:23.483Z,46.08
2022-10-21T22:38:50.069Z,47.00
2022-10-21T22:41:16.656Z,53.22
2022-10-21T22:43:43.255Z,47.55
2022-10-21T22:48:57.621Z,46.95
2022-10-21T22:51:24.299Z,44.25
2022-10-21T22:53:55.313Z,45.03
2022-10-21T22:56:25.943Z,50.40
2022-10-21T22:58:52.641Z,50.60
2022-10-21T23:01:19.687Z,50.47
2022-10-21T23:03:46.304Z,48.55
2022-10-21T23:06:12.976Z,51.78
2022-10-21T23:08:39.672Z,49.30
2022-10-21T23:11:06.622Z,41.17
2022-10-21T23:13:33.571Z,48.55
2022-10-21T23:16:00.204Z,46.42
2022-10-21T23:18:26.845Z,47.58
2022-10-21T23:20:53.511Z,50.20
2022-10-21T23:23:20.143Z,47.88
2022-10-21T23:25:46.698Z,42.85
2022-10-21T23:28:13.646Z,41.72
2022-10-21T23:30:43.728Z,41.33
2022-10-21T23:33:10.988Z,44.35
2022-10-21T23:35:37.595Z,46.90
2022-10-21T23:38:04.355Z,42.17
2022-10-21T23:40:31.398Z,39.85
2022-10-21T23:42:58.069Z,41.08
2022-10-21T23:45:24.819Z,43.40
2022-10-21T23:47:51.485Z,44.05
2022-10-21T23:50:18.207Z,41.85
2022-10-21T23:52:44.949Z,44.72
2022-10-21T23:55:11.604Z,44.47
2022-10-21T23:57:38.977Z,36.75
